sensor_id;sensor_type;location;lat;lon;timestamp;P1;durP1;ratioP1;P2;durP2;ratioP2
69532;SDS011;56729;52.036;5.332;2024-02-15T00:01:04;101.88;;;17.23;;
69532;SDS011;56729;52.036;5.332;2024-02-15T00:02:06;34.53;;;12.98;;
69532;SDS011;56729;52.036;5.332;2024-02-15T00:03:09;38.28;;;14.95;;
69532;SDS011;56729;52.036;5.332;2024-02-15T00:04:14;77.30;;;15.18;;
69532;SDS011;56729;52.036;5.332;2024-02-15T00:05:18;29.13;;;13.20;;
69532;SDS011;56729;52.036;5.332;2024-02-15T00:06:20;24.25;;;11.65;;
69532;SDS011;56729;52.036;5.332;2024-02-15T00:07:23;28.55;;;11.95;;
69532;SDS011;56729;52.036;5.332;2024-02-15T00:08:25;112.57;;;19.05;;
69532;SDS011;56729;52.036;5.332;2024-02-15T00:09:28;33.47;;;15.23;;
69532;SDS011;56729;52.036;5.332;2024-02-15T00:10:30;27.10;;;11.10;;
69532;SDS011;56729;52.036;5.332;2024-02-15T00:11:33;34.80;;;13.10;;
69532;SDS011;56729;52.036;5.332;2024-02-15T00:12:35;25.23;;;10.95;;
69532;SDS011;56729;52.036;5.332;2024-02-15T00:13:38;32.20;;;12.07;;
69532;SDS011;56729;52.036;5.332;2024-02-15T00:14:40;113.95;;;18.98;;
69532;SDS011;56729;52.036;5.332;2024-02-15T00:15:42;25.90;;;12.67;;
69532;SDS011;56729;52.036;5.332;2024-02-15T00:16:44;29.42;;;13.73;;
69532;SDS011;56729;52.036;5.332;2024-02-15T00:17:47;44.45;;;12.95;;
69532;SDS011;56729;52.036;5.332;2024-02-15T00:18:50;186.07;;;26.42;;
69532;SDS011;56729;52.036;5.332;2024-02-15T00:19:53;45.65;;;13.15;;
69532;SDS011;56729;52.036;5.332;2024-02-15T00:20:56;62.90;;;20.33;;
69532;SDS011;56729;52.036;5.332;2024-02-15T00:21:58;98.68;;;16.55;;
69532;SDS011;56729;52.036;5.332;2024-02-15T00:23:01;112.03;;;16.90;;
69532;SDS011;56729;52.036;5.332;2024-02-15T00:24:03;29.92;;;12.70;;
69532;SDS011;56729;52.036;5.332;2024-02-15T00:25:07;97.63;;;16.55;;
69532;SDS011;56729;52.036;5.332;2024-02-15T00:26:29;61.00;;;14.37;;
69532;SDS011;56729;52.036;5.332;2024-02-15T00:27:32;33.33;;;11.57;;
69532;SDS011;56729;52.036;5.332;2024-02-15T00:28:36;30.92;;;14.68;;
69532;SDS011;56729;52.036;5.332;2024-02-15T00:29:37;40.35;;;14.23;;
69532;SDS011;56729;52.036;5.332;2024-02-15T00:30:42;26.33;;;10.73;;
69532;SDS011;56729;52.036;5.332;2024-02-15T00:31:44;98.40;;;15.10;;
69532;SDS011;56729;52.036;5.332;2024-02-15T00:32:47;33.17;;;12.05;;
69532;SDS011;56729;52.036;5.332;2024-02-15T00:33:49;36.60;;;12.05;;
69532;SDS011;56729;52.036;5.332;2024-02-15T00:34:51;28.73;;;10.48;;
69532;SDS011;56729;52.036;5.332;2024-02-15T00:35:54;32.45;;;11.27;;
69532;SDS011;56729;52.036;5.332;2024-02-15T00:36:58;54.90;;;14.30;;
69532;SDS011;56729;52.036;5.332;2024-02-15T00:38:01;43.33;;;12.15;;
69532;SDS011;56729;52.036;5.332;2024-02-15T00:39:03;22.67;;;10.45;;
69532;SDS011;56729;52.036;5.332;2024-02-15T00:40:07;24.23;;;12.50;;
69532;SDS011;56729;52.036;5.332;2024-02-15T00:41:10;22.92;;;10.45;;
69532;SDS011;56729;52.036;5.332;2024-02-15T00:42:12;47.17;;;13.93;;
69532;SDS011;56729;52.036;5.332;2024-02-15T00:43:14;37.42;;;12.68;;
69532;SDS011;56729;52.036;5.332;2024-02-15T00:44:16;81.90;;;15.10;;
69532;SDS011;56729;52.036;5.332;2024-02-15T00:45:19;126.00;;;17.38;;
69532;SDS011;56729;52.036;5.332;2024-02-15T00:46:21;83.05;;;16.42;;
69532;SDS011;56729;52.036;5.332;2024-02-15T00:47:23;91.30;;;15.80;;
69532;SDS011;56729;52.036;5.332;2024-02-15T00:48:26;134.07;;;19.23;;
69532;SDS011;56729;52.036;5.332;2024-02-15T00:49:30;87.47;;;16.38;;
69532;SDS011;56729;52.036;5.332;2024-02-15T00:50:33;55.53;;;14.45;;
69532;SDS011;56729;52.036;5.332;2024-02-15T00:51:35;70.15;;;14.93;;
69532;SDS011;56729;52.036;5.332;2024-02-15T00:52:38;195.75;;;19.20;;
69532;SDS011;56729;52.036;5.332;2024-02-15T00:53:40;124.30;;;20.63;;
69532;SDS011;56729;52.036;5.332;2024-02-15T00:54:42;107.05;;;17.95;;
69532;SDS011;56729;52.036;5.332;2024-02-15T00:55:45;97.28;;;16.70;;
69532;SDS011;56729;52.036;5.332;2024-02-15T00:56:47;166.10;;;19.63;;
69532;SDS011;56729;52.036;5.332;2024-02-15T00:57:49;169.67;;;20.10;;
69532;SDS011;56729;52.036;5.332;2024-02-15T00:58:51;137.90;;;17.00;;
69532;SDS011;56729;52.036;5.332;2024-02-15T00:59:54;171.63;;;18.15;;
69532;SDS011;56729;52.036;5.332;2024-02-15T01:00:56;137.80;;;21.08;;
69532;SDS011;56729;52.036;5.332;2024-02-15T01:01:58;138.20;;;25.80;;
69532;SDS011;56729;52.036;5.332;2024-02-15T01:03:01;69.28;;;15.98;;
69532;SDS011;56729;52.036;5.332;2024-02-15T01:04:03;35.35;;;12.63;;
69532;SDS011;56729;52.036;5.332;2024-02-15T01:05:06;69.07;;;16.20;;
69532;SDS011;56729;52.036;5.332;2024-02-15T01:06:08;72.00;;;17.60;;
69532;SDS011;56729;52.036;5.332;2024-02-15T01:07:10;87.75;;;15.90;;
69532;SDS011;56729;52.036;5.332;2024-02-15T01:08:12;171.83;;;19.97;;
69532;SDS011;56729;52.036;5.332;2024-02-15T01:09:16;104.40;;;18.30;;
69532;SDS011;56729;52.036;5.332;2024-02-15T01:10:20;281.05;;;23.70;;
69532;SDS011;56729;52.036;5.332;2024-02-15T01:11:21;223.15;;;24.80;;
69532;SDS011;56729;52.036;5.332;2024-02-15T01:12:23;125.95;;;18.08;;
69532;SDS011;56729;52.036;5.332;2024-02-15T01:13:25;192.15;;;19.30;;
69532;SDS011;56729;52.036;5.332;2024-02-15T01:14:27;323.90;;;25.85;;
69532;SDS011;56729;52.036;5.332;2024-02-15T01:15:32;156.07;;;19.90;;
69532;SDS011;56729;52.036;5.332;2024-02-15T01:16:34;140.82;;;20.20;;
69532;SDS011;56729;52.036;5.332;2024-02-15T01:17:37;221.73;;;24.00;;
69532;SDS011;56729;52.036;5.332;2024-02-15T01:18:39;250.53;;;23.70;;
69532;SDS011;56729;52.036;5.332;2024-02-15T01:19:42;124.40;;;20.08;;
69532;SDS011;56729;52.036;5.332;2024-02-15T01:20:44;117.97;;;17.55;;
69532;SDS011;56729;52.036;5.332;2024-02-15T01:21:46;158.02;;;22.00;;
69532;SDS011;56729;52.036;5.332;2024-02-15T01:22:48;111.10;;;21.35;;
69532;SDS011;56729;52.036;5.332;2024-02-15T01:23:51;188.93;;;25.95;;
69532;SDS011;56729;52.036;5.332;2024-02-15T01:24:55;81.25;;;22.40;;
69532;SDS011;56729;52.036;5.332;2024-02-15T01:25:59;157.60;;;30.60;;
69532;SDS011;56729;52.036;5.332;2024-02-15T01:27:02;220.75;;;30.00;;
69532;SDS011;56729;52.036;5.332;2024-02-15T01:28:04;92.50;;;22.55;;
69532;SDS011;56729;52.036;5.332;2024-02-15T01:29:08;154.90;;;25.20;;
69532;SDS011;56729;52.036;5.332;2024-02-15T01:30:13;83.60;;;24.42;;
69532;SDS011;56729;52.036;5.332;2024-02-15T01:31:15;117.43;;;26.80;;
69532;SDS011;56729;52.036;5.332;2024-02-15T01:32:21;194.32;;;30.85;;
69532;SDS011;56729;52.036;5.332;2024-02-15T01:33:23;147.02;;;28.38;;
69532;SDS011;56729;52.036;5.332;2024-02-15T01:34:25;246.32;;;32.72;;
69532;SDS011;56729;52.036;5.332;2024-02-15T01:35:28;83.30;;;25.15;;
69532;SDS011;56729;52.036;5.332;2024-02-15T01:36:30;108.25;;;24.30;;
69532;SDS011;56729;52.036;5.332;2024-02-15T01:37:32;239.00;;;34.30;;
69532;SDS011;56729;52.036;5.332;2024-02-15T01:38:34;214.88;;;32.45;;
69532;SDS011;56729;52.036;5.332;2024-02-15T01:39:36;193.57;;;31.60;;
69532;SDS011;56729;52.036;5.332;2024-02-15T01:40:38;56.88;;;23.92;;
69532;SDS011;56729;52.036;5.332;2024-02-15T01:41:40;64.43;;;25.15;;
69532;SDS011;56729;52.036;5.332;2024-02-15T01:42:47;77.57;;;24.45;;
69532;SDS011;56729;52.036;5.332;2024-02-15T01:43:52;122.40;;;29.55;;
69532;SDS011;56729;52.036;5.332;2024-02-15T01:44:56;325.20;;;41.08;;
69532;SDS011;56729;52.036;5.332;2024-02-15T01:45:59;86.50;;;28.98;;
69532;SDS011;56729;52.036;5.332;2024-02-15T01:47:04;57.90;;;23.50;;
69532;SDS011;56729;52.036;5.332;2024-02-15T01:48:06;72.60;;;25.13;;
69532;SDS011;56729;52.036;5.332;2024-02-15T01:49:10;71.70;;;23.85;;
69532;SDS011;56729;52.036;5.332;2024-02-15T01:50:13;56.17;;;22.33;;
69532;SDS011;56729;52.036;5.332;2024-02-15T01:51:21;80.88;;;29.27;;
69532;SDS011;56729;52.036;5.332;2024-02-15T01:52:25;53.13;;;21.17;;
69532;SDS011;56729;52.036;5.332;2024-02-15T01:53:27;42.63;;;19.65;;
69532;SDS011;56729;52.036;5.332;2024-02-15T01:54:30;50.97;;;21.65;;
69532;SDS011;56729;52.036;5.332;2024-02-15T01:55:33;61.25;;;21.90;;
69532;SDS011;56729;52.036;5.332;2024-02-15T01:56:35;59.70;;;22.50;;
69532;SDS011;56729;52.036;5.332;2024-02-15T01:57:38;49.10;;;20.63;;
69532;SDS011;56729;52.036;5.332;2024-02-15T01:58:40;51.75;;;20.40;;
69532;SDS011;56729;52.036;5.332;2024-02-15T01:59:43;49.47;;;20.20;;
69532;SDS011;56729;52.036;5.332;2024-02-15T02:00:47;91.40;;;24.20;;
69532;SDS011;56729;52.036;5.332;2024-02-15T02:01:50;90.90;;;26.15;;
69532;SDS011;56729;52.036;5.332;2024-02-15T02:02:53;54.55;;;20.55;;
69532;SDS011;56729;52.036;5.332;2024-02-15T02:03:56;48.00;;;23.70;;
69532;SDS011;56729;52.036;5.332;2024-02-15T02:05:01;51.38;;;19.33;;
69532;SDS011;56729;52.036;5.332;2024-02-15T02:06:04;56.40;;;20.63;;
69532;SDS011;56729;52.036;5.332;2024-02-15T02:07:07;101.45;;;23.42;;
69532;SDS011;56729;52.036;5.332;2024-02-15T02:08:10;42.88;;;17.63;;
69532;SDS011;56729;52.036;5.332;2024-02-15T02:09:12;39.03;;;18.40;;
69532;SDS011;56729;52.036;5.332;2024-02-15T02:10:16;38.60;;;21.42;;
69532;SDS011;56729;52.036;5.332;2024-02-15T02:11:19;33.90;;;17.53;;
69532;SDS011;56729;52.036;5.332;2024-02-15T02:12:22;42.83;;;19.08;;
69532;SDS011;56729;52.036;5.332;2024-02-15T02:13:26;36.13;;;19.30;;
69532;SDS011;56729;52.036;5.332;2024-02-15T02:14:31;106.03;;;23.92;;
69532;SDS011;56729;52.036;5.332;2024-02-15T02:15:34;75.03;;;20.77;;
69532;SDS011;56729;52.036;5.332;2024-02-15T02:16:35;54.50;;;19.10;;
69532;SDS011;56729;52.036;5.332;2024-02-15T02:17:40;87.75;;;21.55;;
69532;SDS011;56729;52.036;5.332;2024-02-15T02:18:42;39.47;;;16.02;;
69532;SDS011;56729;52.036;5.332;2024-02-15T02:19:46;43.13;;;18.23;;
69532;SDS011;56729;52.036;5.332;2024-02-15T02:20:49;47.28;;;17.85;;
69532;SDS011;56729;52.036;5.332;2024-02-15T02:21:51;56.07;;;21.00;;
69532;SDS011;56729;52.036;5.332;2024-02-15T02:22:54;42.83;;;18.83;;
69532;SDS011;56729;52.036;5.332;2024-02-15T02:24:12;56.92;;;17.85;;
69532;SDS011;56729;52.036;5.332;2024-02-15T02:25:15;110.40;;;22.70;;
69532;SDS011;56729;52.036;5.332;2024-02-15T02:26:22;70.10;;;20.85;;
69532;SDS011;56729;52.036;5.332;2024-02-15T02:27:26;152.13;;;23.63;;
69532;SDS011;56729;52.036;5.332;2024-02-15T02:28:30;156.20;;;23.35;;
69532;SDS011;56729;52.036;5.332;2024-02-15T02:29:31;133.50;;;21.92;;
69532;SDS011;56729;52.036;5.332;2024-02-15T02:30:33;83.45;;;21.52;;
69532;SDS011;56729;52.036;5.332;2024-02-15T02:31:36;69.13;;;19.65;;
69532;SDS011;56729;52.036;5.332;2024-02-15T02:32:38;237.77;;;26.13;;
69532;SDS011;56729;52.036;5.332;2024-02-15T02:33:42;52.50;;;15.88;;
69532;SDS011;56729;52.036;5.332;2024-02-15T02:34:48;97.47;;;21.25;;
69532;SDS011;56729;52.036;5.332;2024-02-15T02:35:50;219.65;;;31.08;;
69532;SDS011;56729;52.036;5.332;2024-02-15T02:36:53;225.23;;;25.25;;
69532;SDS011;56729;52.036;5.332;2024-02-15T02:37:56;127.15;;;20.27;;
69532;SDS011;56729;52.036;5.332;2024-02-15T02:38:58;161.57;;;26.92;;
69532;SDS011;56729;52.036;5.332;2024-02-15T02:40:03;121.65;;;20.77;;
69532;SDS011;56729;52.036;5.332;2024-02-15T02:41:07;133.00;;;19.95;;
69532;SDS011;56729;52.036;5.332;2024-02-15T02:42:09;33.20;;;15.13;;
69532;SDS011;56729;52.036;5.332;2024-02-15T02:43:12;124.00;;;18.53;;
69532;SDS011;56729;52.036;5.332;2024-02-15T02:44:14;81.10;;;21.02;;
69532;SDS011;56729;52.036;5.332;2024-02-15T02:45:15;79.50;;;20.15;;
69532;SDS011;56729;52.036;5.332;2024-02-15T02:46:18;41.78;;;16.23;;
69532;SDS011;56729;52.036;5.332;2024-02-15T02:47:21;49.53;;;17.85;;
69532;SDS011;56729;52.036;5.332;2024-02-15T02:48:24;84.97;;;19.73;;
69532;SDS011;56729;52.036;5.332;2024-02-15T02:49:26;44.00;;;15.70;;
69532;SDS011;56729;52.036;5.332;2024-02-15T02:50:28;64.57;;;16.98;;
69532;SDS011;56729;52.036;5.332;2024-02-15T02:51:30;80.03;;;18.88;;
69532;SDS011;56729;52.036;5.332;2024-02-15T02:52:33;38.97;;;14.18;;
69532;SDS011;56729;52.036;5.332;2024-02-15T02:53:35;56.27;;;17.43;;
69532;SDS011;56729;52.036;5.332;2024-02-15T02:54:37;91.25;;;19.67;;
69532;SDS011;56729;52.036;5.332;2024-02-15T02:55:40;65.03;;;18.27;;
69532;SDS011;56729;52.036;5.332;2024-02-15T02:56:42;71.68;;;16.75;;
69532;SDS011;56729;52.036;5.332;2024-02-15T02:57:46;111.70;;;18.45;;
69532;SDS011;56729;52.036;5.332;2024-02-15T02:58:48;566.47;;;36.50;;
69532;SDS011;56729;52.036;5.332;2024-02-15T02:59:51;108.63;;;18.25;;
69532;SDS011;56729;52.036;5.332;2024-02-15T03:00:53;250.23;;;27.25;;
69532;SDS011;56729;52.036;5.332;2024-02-15T03:01:56;164.98;;;21.40;;
69532;SDS011;56729;52.036;5.332;2024-02-15T03:02:58;111.18;;;23.20;;
69532;SDS011;56729;52.036;5.332;2024-02-15T03:04:01;38.87;;;14.90;;
69532;SDS011;56729;52.036;5.332;2024-02-15T03:05:06;38.88;;;15.90;;
69532;SDS011;56729;52.036;5.332;2024-02-15T03:06:10;34.60;;;13.23;;
69532;SDS011;56729;52.036;5.332;2024-02-15T03:07:12;135.05;;;18.88;;
69532;SDS011;56729;52.036;5.332;2024-02-15T03:08:18;279.25;;;26.10;;
69532;SDS011;56729;52.036;5.332;2024-02-15T03:09:20;104.07;;;22.38;;
69532;SDS011;56729;52.036;5.332;2024-02-15T03:10:24;275.38;;;28.00;;
69532;SDS011;56729;52.036;5.332;2024-02-15T03:11:26;84.40;;;16.13;;
69532;SDS011;56729;52.036;5.332;2024-02-15T03:12:28;142.73;;;21.65;;
69532;SDS011;56729;52.036;5.332;2024-02-15T03:13:31;114.47;;;19.67;;
69532;SDS011;56729;52.036;5.332;2024-02-15T03:14:33;253.33;;;24.80;;
69532;SDS011;56729;52.036;5.332;2024-02-15T03:15:37;100.10;;;16.45;;
69532;SDS011;56729;52.036;5.332;2024-02-15T03:16:41;329.58;;;28.83;;
69532;SDS011;56729;52.036;5.332;2024-02-15T03:17:44;120.15;;;17.65;;
69532;SDS011;56729;52.036;5.332;2024-02-15T03:18:47;36.45;;;14.40;;
69532;SDS011;56729;52.036;5.332;2024-02-15T03:19:50;133.18;;;18.52;;
69532;SDS011;56729;52.036;5.332;2024-02-15T03:20:52;66.57;;;17.05;;
69532;SDS011;56729;52.036;5.332;2024-02-15T03:21:54;67.18;;;17.33;;
69532;SDS011;56729;52.036;5.332;2024-02-15T03:22:57;112.00;;;19.92;;
69532;SDS011;56729;52.036;5.332;2024-02-15T03:23:59;104.40;;;17.35;;
69532;SDS011;56729;52.036;5.332;2024-02-15T03:25:01;266.30;;;25.37;;
69532;SDS011;56729;52.036;5.332;2024-02-15T03:26:03;93.55;;;17.77;;
69532;SDS011;56729;52.036;5.332;2024-02-15T03:27:05;247.52;;;26.58;;
69532;SDS011;56729;52.036;5.332;2024-02-15T03:28:07;103.20;;;17.23;;
69532;SDS011;56729;52.036;5.332;2024-02-15T03:29:09;180.27;;;21.92;;
69532;SDS011;56729;52.036;5.332;2024-02-15T03:30:11;330.42;;;29.30;;
69532;SDS011;56729;52.036;5.332;2024-02-15T03:31:13;80.95;;;14.93;;
69532;SDS011;56729;52.036;5.332;2024-02-15T03:32:17;74.57;;;16.17;;
69532;SDS011;56729;52.036;5.332;2024-02-15T03:33:18;242.90;;;22.63;;
69532;SDS011;56729;52.036;5.332;2024-02-15T03:34:22;78.25;;;18.15;;
69532;SDS011;56729;52.036;5.332;2024-02-15T03:35:26;140.23;;;19.83;;
69532;SDS011;56729;52.036;5.332;2024-02-15T03:36:30;111.00;;;23.92;;
69532;SDS011;56729;52.036;5.332;2024-02-15T03:37:32;44.67;;;13.85;;
69532;SDS011;56729;52.036;5.332;2024-02-15T03:38:38;105.75;;;20.98;;
69532;SDS011;56729;52.036;5.332;2024-02-15T03:39:40;40.47;;;14.13;;
69532;SDS011;56729;52.036;5.332;2024-02-15T03:40:42;114.25;;;17.73;;
69532;SDS011;56729;52.036;5.332;2024-02-15T03:41:44;74.95;;;14.93;;
69532;SDS011;56729;52.036;5.332;2024-02-15T03:42:47;59.08;;;14.82;;
69532;SDS011;56729;52.036;5.332;2024-02-15T03:43:49;173.13;;;20.58;;
69532;SDS011;56729;52.036;5.332;2024-02-15T03:44:51;98.18;;;16.63;;
69532;SDS011;56729;52.036;5.332;2024-02-15T03:45:56;79.67;;;14.23;;
69532;SDS011;56729;52.036;5.332;2024-02-15T03:46:59;352.67;;;29.63;;
69532;SDS011;56729;52.036;5.332;2024-02-15T03:48:00;242.40;;;25.05;;
69532;SDS011;56729;52.036;5.332;2024-02-15T03:49:03;129.10;;;16.88;;
69532;SDS011;56729;52.036;5.332;2024-02-15T03:50:05;266.10;;;20.20;;
69532;SDS011;56729;52.036;5.332;2024-02-15T03:51:09;93.38;;;17.33;;
69532;SDS011;56729;52.036;5.332;2024-02-15T03:52:11;41.22;;;11.98;;
69532;SDS011;56729;52.036;5.332;2024-02-15T03:53:13;31.60;;;14.85;;
69532;SDS011;56729;52.036;5.332;2024-02-15T03:54:15;39.63;;;12.27;;
69532;SDS011;56729;52.036;5.332;2024-02-15T03:55:18;126.75;;;21.60;;
69532;SDS011;56729;52.036;5.332;2024-02-15T03:56:20;86.53;;;15.13;;
69532;SDS011;56729;52.036;5.332;2024-02-15T03:57:23;27.15;;;12.18;;
69532;SDS011;56729;52.036;5.332;2024-02-15T03:58:25;41.85;;;12.45;;
69532;SDS011;56729;52.036;5.332;2024-02-15T03:59:27;48.80;;;12.80;;
69532;SDS011;56729;52.036;5.332;2024-02-15T04:00:29;29.05;;;13.73;;
69532;SDS011;56729;52.036;5.332;2024-02-15T04:01:31;30.42;;;9.43;;
69532;SDS011;56729;52.036;5.332;2024-02-15T04:02:35;45.30;;;15.20;;
69532;SDS011;56729;52.036;5.332;2024-02-15T04:03:37;34.38;;;11.70;;
69532;SDS011;56729;52.036;5.332;2024-02-15T04:04:39;57.83;;;12.77;;
69532;SDS011;56729;52.036;5.332;2024-02-15T04:05:44;27.60;;;10.55;;
69532;SDS011;56729;52.036;5.332;2024-02-15T04:06:49;60.47;;;12.80;;
69532;SDS011;56729;52.036;5.332;2024-02-15T04:07:55;56.70;;;13.95;;
69532;SDS011;56729;52.036;5.332;2024-02-15T04:08:57;38.55;;;10.93;;
69532;SDS011;56729;52.036;5.332;2024-02-15T04:09:59;52.55;;;13.02;;
69532;SDS011;56729;52.036;5.332;2024-02-15T04:11:02;69.18;;;13.63;;
69532;SDS011;56729;52.036;5.332;2024-02-15T04:12:05;38.17;;;11.05;;
69532;SDS011;56729;52.036;5.332;2024-02-15T04:13:08;69.72;;;13.18;;
69532;SDS011;56729;52.036;5.332;2024-02-15T04:14:10;79.50;;;14.82;;
69532;SDS011;56729;52.036;5.332;2024-02-15T04:15:12;112.28;;;14.50;;
69532;SDS011;56729;52.036;5.332;2024-02-15T04:16:19;30.92;;;11.40;;
69532;SDS011;56729;52.036;5.332;2024-02-15T04:17:21;37.63;;;10.90;;
69532;SDS011;56729;52.036;5.332;2024-02-15T04:18:23;50.28;;;11.77;;
69532;SDS011;56729;52.036;5.332;2024-02-15T04:19:26;83.75;;;13.25;;
69532;SDS011;56729;52.036;5.332;2024-02-15T04:20:27;30.42;;;11.32;;
69532;SDS011;56729;52.036;5.332;2024-02-15T04:21:30;36.00;;;10.60;;
69532;SDS011;56729;52.036;5.332;2024-02-15T04:22:32;122.18;;;15.60;;
69532;SDS011;56729;52.036;5.332;2024-02-15T04:23:38;29.00;;;9.55;;
69532;SDS011;56729;52.036;5.332;2024-02-15T04:24:40;30.60;;;13.07;;
69532;SDS011;56729;52.036;5.332;2024-02-15T04:25:42;33.03;;;11.23;;
69532;SDS011;56729;52.036;5.332;2024-02-15T04:26:48;32.22;;;11.68;;
69532;SDS011;56729;52.036;5.332;2024-02-15T04:27:50;43.73;;;9.83;;
69532;SDS011;56729;52.036;5.332;2024-02-15T04:28:53;23.40;;;10.55;;
69532;SDS011;56729;52.036;5.332;2024-02-15T04:29:55;37.88;;;10.80;;
69532;SDS011;56729;52.036;5.332;2024-02-15T04:30:57;33.17;;;10.63;;
69532;SDS011;56729;52.036;5.332;2024-02-15T04:31:59;33.80;;;11.85;;
69532;SDS011;56729;52.036;5.332;2024-02-15T04:33:01;27.10;;;13.68;;
69532;SDS011;56729;52.036;5.332;2024-02-15T04:34:03;36.10;;;9.80;;
69532;SDS011;56729;52.036;5.332;2024-02-15T04:35:05;27.73;;;9.82;;
69532;SDS011;56729;52.036;5.332;2024-02-15T04:36:11;30.60;;;8.60;;
69532;SDS011;56729;52.036;5.332;2024-02-15T04:37:13;52.05;;;12.13;;
69532;SDS011;56729;52.036;5.332;2024-02-15T04:38:15;24.40;;;11.20;;
69532;SDS011;56729;52.036;5.332;2024-02-15T04:39:20;30.42;;;10.75;;
69532;SDS011;56729;52.036;5.332;2024-02-15T04:40:25;38.70;;;10.30;;
69532;SDS011;56729;52.036;5.332;2024-02-15T04:41:27;52.75;;;9.93;;
69532;SDS011;56729;52.036;5.332;2024-02-15T04:42:30;44.08;;;11.05;;
69532;SDS011;56729;52.036;5.332;2024-02-15T04:43:34;30.88;;;10.07;;
69532;SDS011;56729;52.036;5.332;2024-02-15T04:44:40;31.10;;;9.77;;
69532;SDS011;56729;52.036;5.332;2024-02-15T04:45:42;56.63;;;12.82;;
69532;SDS011;56729;52.036;5.332;2024-02-15T04:46:44;38.28;;;9.80;;
69532;SDS011;56729;52.036;5.332;2024-02-15T04:47:47;37.00;;;12.48;;
69532;SDS011;56729;52.036;5.332;2024-02-15T04:48:52;37.33;;;9.33;;
69532;SDS011;56729;52.036;5.332;2024-02-15T04:49:55;31.05;;;10.05;;
69532;SDS011;56729;52.036;5.332;2024-02-15T04:50:58;32.92;;;10.02;;
69532;SDS011;56729;52.036;5.332;2024-02-15T04:52:01;36.42;;;10.75;;
69532;SDS011;56729;52.036;5.332;2024-02-15T04:53:03;29.70;;;11.25;;
69532;SDS011;56729;52.036;5.332;2024-02-15T04:54:07;31.75;;;9.82;;
69532;SDS011;56729;52.036;5.332;2024-02-15T04:55:10;40.13;;;10.75;;
69532;SDS011;56729;52.036;5.332;2024-02-15T04:56:13;25.80;;;10.07;;
69532;SDS011;56729;52.036;5.332;2024-02-15T04:57:15;47.15;;;13.90;;
69532;SDS011;56729;52.036;5.332;2024-02-15T04:58:19;75.22;;;13.50;;
69532;SDS011;56729;52.036;5.332;2024-02-15T04:59:21;35.10;;;10.10;;
69532;SDS011;56729;52.036;5.332;2024-02-15T05:00:27;34.35;;;10.63;;
69532;SDS011;56729;52.036;5.332;2024-02-15T05:01:30;61.55;;;14.82;;
69532;SDS011;56729;52.036;5.332;2024-02-15T05:02:34;47.67;;;11.93;;
69532;SDS011;56729;52.036;5.332;2024-02-15T05:03:43;42.78;;;11.60;;
69532;SDS011;56729;52.036;5.332;2024-02-15T05:04:45;39.85;;;10.90;;
69532;SDS011;56729;52.036;5.332;2024-02-15T05:05:48;126.80;;;17.35;;
69532;SDS011;56729;52.036;5.332;2024-02-15T05:06:51;36.65;;;13.63;;
69532;SDS011;56729;52.036;5.332;2024-02-15T05:07:54;31.10;;;13.48;;
69532;SDS011;56729;52.036;5.332;2024-02-15T05:08:58;32.80;;;12.15;;
69532;SDS011;56729;52.036;5.332;2024-02-15T05:10:01;40.20;;;11.73;;
69532;SDS011;56729;52.036;5.332;2024-02-15T05:11:04;33.88;;;11.63;;
69532;SDS011;56729;52.036;5.332;2024-02-15T05:12:08;43.55;;;14.35;;
69532;SDS011;56729;52.036;5.332;2024-02-15T05:13:10;39.42;;;12.43;;
69532;SDS011;56729;52.036;5.332;2024-02-15T05:14:15;42.83;;;14.70;;
69532;SDS011;56729;52.036;5.332;2024-02-15T05:15:22;46.35;;;12.65;;
69532;SDS011;56729;52.036;5.332;2024-02-15T05:16:26;66.38;;;14.20;;
69532;SDS011;56729;52.036;5.332;2024-02-15T05:17:28;50.63;;;16.80;;
69532;SDS011;56729;52.036;5.332;2024-02-15T05:18:31;37.35;;;14.70;;
69532;SDS011;56729;52.036;5.332;2024-02-15T05:19:36;35.15;;;17.45;;
69532;SDS011;56729;52.036;5.332;2024-02-15T05:20:38;40.07;;;16.70;;
69532;SDS011;56729;52.036;5.332;2024-02-15T05:21:45;39.15;;;13.52;;
69532;SDS011;56729;52.036;5.332;2024-02-15T05:22:48;29.33;;;11.27;;
69532;SDS011;56729;52.036;5.332;2024-02-15T05:23:52;42.80;;;13.68;;
69532;SDS011;56729;52.036;5.332;2024-02-15T05:24:55;48.00;;;13.98;;
69532;SDS011;56729;52.036;5.332;2024-02-15T05:25:57;48.47;;;12.95;;
69532;SDS011;56729;52.036;5.332;2024-02-15T05:26:59;45.63;;;15.13;;
69532;SDS011;56729;52.036;5.332;2024-02-15T05:28:02;42.85;;;12.93;;
69532;SDS011;56729;52.036;5.332;2024-02-15T05:29:07;75.35;;;16.20;;
69532;SDS011;56729;52.036;5.332;2024-02-15T05:30:09;63.15;;;17.15;;
69532;SDS011;56729;52.036;5.332;2024-02-15T05:31:19;40.73;;;14.13;;
69532;SDS011;56729;52.036;5.332;2024-02-15T05:32:26;50.88;;;14.02;;
69532;SDS011;56729;52.036;5.332;2024-02-15T05:33:28;36.00;;;12.57;;
69532;SDS011;56729;52.036;5.332;2024-02-15T05:34:34;42.58;;;13.18;;
69532;SDS011;56729;52.036;5.332;2024-02-15T05:35:42;60.78;;;22.48;;
69532;SDS011;56729;52.036;5.332;2024-02-15T05:36:48;41.28;;;12.80;;
69532;SDS011;56729;52.036;5.332;2024-02-15T05:37:50;31.02;;;13.00;;
69532;SDS011;56729;52.036;5.332;2024-02-15T05:38:55;127.32;;;19.02;;
69532;SDS011;56729;52.036;5.332;2024-02-15T05:39:59;40.63;;;15.07;;
69532;SDS011;56729;52.036;5.332;2024-02-15T05:41:02;54.15;;;15.10;;
69532;SDS011;56729;52.036;5.332;2024-02-15T05:42:04;48.13;;;16.93;;
69532;SDS011;56729;52.036;5.332;2024-02-15T05:43:08;53.53;;;16.25;;
69532;SDS011;56729;52.036;5.332;2024-02-15T05:44:11;97.63;;;18.77;;
69532;SDS011;56729;52.036;5.332;2024-02-15T05:46:31;118.47;;;22.40;;
69532;SDS011;56729;52.036;5.332;2024-02-15T05:47:33;46.53;;;14.25;;
69532;SDS011;56729;52.036;5.332;2024-02-15T05:48:36;109.00;;;19.38;;
69532;SDS011;56729;52.036;5.332;2024-02-15T05:49:39;167.63;;;21.70;;
69532;SDS011;56729;52.036;5.332;2024-02-15T05:50:41;128.85;;;19.33;;
69532;SDS011;56729;52.036;5.332;2024-02-15T05:51:43;152.52;;;20.42;;
69532;SDS011;56729;52.036;5.332;2024-02-15T05:52:46;151.97;;;20.73;;
69532;SDS011;56729;52.036;5.332;2024-02-15T05:53:49;119.60;;;20.13;;
69532;SDS011;56729;52.036;5.332;2024-02-15T05:54:51;44.28;;;15.40;;
69532;SDS011;56729;52.036;5.332;2024-02-15T05:55:53;34.20;;;13.90;;
69532;SDS011;56729;52.036;5.332;2024-02-15T05:56:56;206.93;;;25.10;;
69532;SDS011;56729;52.036;5.332;2024-02-15T05:58:02;52.22;;;15.63;;
69532;SDS011;56729;52.036;5.332;2024-02-15T05:59:05;48.67;;;18.80;;
69532;SDS011;56729;52.036;5.332;2024-02-15T06:00:12;38.88;;;13.43;;
69532;SDS011;56729;52.036;5.332;2024-02-15T06:01:23;38.97;;;14.95;;
69532;SDS011;56729;52.036;5.332;2024-02-15T06:02:26;39.05;;;13.82;;
69532;SDS011;56729;52.036;5.332;2024-02-15T06:03:29;46.57;;;18.43;;
69532;SDS011;56729;52.036;5.332;2024-02-15T06:04:33;67.28;;;23.48;;
69532;SDS011;56729;52.036;5.332;2024-02-15T06:05:35;36.67;;;13.90;;
69532;SDS011;56729;52.036;5.332;2024-02-15T06:06:37;36.63;;;14.63;;
69532;SDS011;56729;52.036;5.332;2024-02-15T06:07:40;39.35;;;14.32;;
69532;SDS011;56729;52.036;5.332;2024-02-15T06:08:45;38.60;;;14.18;;
69532;SDS011;56729;52.036;5.332;2024-02-15T06:09:48;39.75;;;13.93;;